createdAt,value
2022-08-07T00:02:35.409Z,0.30
2022-08-07T00:04:06.146Z,0.50
2022-08-07T00:06:36.724Z,0.52
2022-08-07T00:09:16.667Z,0.30
2022-08-07T00:11:54.231Z,0.40
2022-08-07T00:14:25.565Z,0.40
2022-08-07T00:16:58.835Z,0.43
2022-08-07T00:19:26.171Z,0.40
2022-08-07T00:22:12.475Z,0.30
2022-08-07T00:24:51.376Z,0.30
2022-08-07T00:27:18.048Z,0.40
2022-08-07T00:29:49.073Z,0.40
2022-08-07T00:32:16.825Z,0.65
2022-08-07T00:34:43.293Z,0.30
2022-08-07T00:37:09.887Z,0.50
2022-08-07T00:39:45.209Z,0.50
2022-08-07T00:42:25.447Z,0.40
2022-08-07T00:44:55.798Z,0.50
2022-08-07T00:48:07.916Z,0.50
2022-08-07T00:50:19.128Z,0.47
2022-08-07T00:52:48.242Z,0.30
2022-08-07T00:55:17.244Z,0.67
2022-08-07T00:57:55.231Z,0.40
2022-08-07T01:00:23.322Z,0.52
2022-08-07T01:02:50.884Z,0.57
2022-08-07T01:05:19.948Z,0.40
2022-08-07T01:07:46.694Z,0.40
2022-08-07T01:10:18.298Z,0.40
2022-08-07T01:12:54.059Z,0.50
2022-08-07T01:15:35.986Z,0.40
2022-08-07T01:18:10.312Z,0.45
2022-08-07T01:20:44.914Z,0.60
2022-08-07T01:23:36.407Z,0.38
2022-08-07T01:26:07.870Z,0.50
2022-08-07T01:28:40.078Z,0.75
2022-08-07T01:31:15.433Z,0.47
2022-08-07T01:33:55.429Z,0.50
2022-08-07T01:36:33.334Z,0.50
2022-08-07T01:39:04.165Z,0.50
2022-08-07T01:41:38.991Z,0.30
2022-08-07T01:44:07.825Z,0.40
2022-08-07T01:46:34.721Z,0.90
2022-08-07T01:49:02.455Z,0.38
2022-08-07T01:52:01.874Z,0.47
2022-08-07T01:54:37.082Z,0.60
2022-08-07T01:57:24.140Z,0.70
2022-08-07T02:00:02.102Z,0.40
2022-08-07T02:03:19.248Z,0.60
2022-08-07T02:05:59.864Z,0.40
2022-08-07T02:08:29.558Z,0.47
2022-08-07T02:10:59.580Z,0.40
2022-08-07T02:13:56.797Z,0.67
2022-08-07T02:16:28.727Z,0.50
2022-08-07T02:20:07.688Z,0.60
2022-08-07T02:21:58.505Z,0.47
2022-08-07T02:24:29.734Z,0.40
2022-08-07T02:27:01.242Z,0.40
2022-08-07T02:29:30.612Z,0.50
2022-08-07T02:31:59.093Z,0.40
2022-08-07T02:34:27.759Z,0.50
2022-08-07T02:36:56.451Z,0.37
2022-08-07T02:39:42.448Z,0.52
2022-08-07T02:42:14.731Z,0.50
2022-08-07T02:44:49.757Z,0.68
2022-08-07T02:47:19.235Z,0.55
2022-08-07T02:49:58.019Z,0.30
2022-08-07T02:52:41.390Z,0.45
2022-08-07T02:55:27.533Z,0.57
2022-08-07T02:57:59.117Z,0.55
2022-08-07T03:00:28.584Z,0.50
2022-08-07T03:02:57.825Z,0.50
2022-08-07T03:05:29.184Z,1.80
2022-08-07T03:08:07.214Z,0.70
2022-08-07T03:10:40.632Z,0.75
2022-08-07T03:13:10.579Z,0.52
2022-08-07T03:15:47.790Z,0.60
2022-08-07T03:18:24.448Z,0.60
2022-08-07T03:21:01.692Z,0.40
2022-08-07T03:23:33.804Z,0.40
2022-08-07T03:26:23.425Z,1.05
2022-08-07T03:28:51.617Z,0.80
2022-08-07T03:31:23.730Z,0.52
2022-08-07T03:33:56.217Z,0.47
2022-08-07T03:36:25.809Z,0.70
2022-08-07T03:38:57.509Z,0.50
2022-08-07T03:41:42.273Z,1.10
2022-08-07T03:44:12.292Z,0.70
2022-08-07T03:47:11.130Z,0.70
2022-08-07T03:49:30.469Z,0.68
2022-08-07T03:52:01.220Z,0.80
2022-08-07T03:54:36.508Z,0.70
2022-08-07T03:58:33.614Z,1.00
2022-08-07T04:00:04.255Z,0.90
2022-08-07T04:02:31.174Z,0.80
2022-08-07T04:04:58.345Z,0.80
2022-08-07T04:07:25.593Z,0.88
2022-08-07T04:10:03.972Z,0.63
2022-08-07T04:12:32.965Z,0.60
2022-08-07T04:15:02.332Z,0.55
2022-08-07T04:18:30.920Z,0.70
2022-08-07T04:20:19.508Z,1.10
2022-08-07T04:22:53.828Z,0.63
2022-08-07T04:25:31.462Z,1.00
2022-08-07T04:28:08.071Z,1.13
2022-08-07T04:30:55.148Z,0.90
2022-08-07T04:33:24.318Z,0.70
2022-08-07T04:35:55.460Z,0.85
2022-08-07T04:38:25.508Z,0.40
2022-08-07T04:40:56.905Z,1.00
2022-08-07T04:44:09.689Z,0.88
2022-08-07T04:46:34.241Z,0.50
2022-08-07T04:49:18.454Z,0.60
2022-08-07T04:51:55.759Z,0.77
2022-08-07T04:54:33.395Z,1.08
2022-08-07T04:58:16.206Z,0.57
2022-08-07T05:00:31.034Z,0.40
2022-08-07T05:03:49.873Z,0.40
2022-08-07T05:06:19.102Z,0.55
2022-08-07T05:09:09.607Z,0.45
2022-08-07T05:11:58.415Z,0.60
2022-08-07T05:14:53.755Z,0.43
2022-08-07T05:17:52.204Z,0.40
2022-08-07T05:20:16.927Z,0.52
2022-08-07T05:22:47.881Z,0.30
2022-08-07T05:25:25.615Z,0.55
2022-08-07T05:28:20.435Z,0.57
2022-08-07T05:30:52.473Z,0.50
2022-08-07T05:33:21.355Z,0.57
2022-08-07T05:35:51.759Z,0.50
2022-08-07T05:39:01.106Z,0.73
2022-08-07T05:41:14.456Z,0.67
2022-08-07T05:44:08.596Z,0.90
2022-08-07T05:46:37.327Z,1.17
2022-08-07T05:49:12.115Z,1.63
2022-08-07T05:51:40.744Z,0.80
2022-08-07T05:54:30.185Z,1.33
2022-08-07T05:56:57.248Z,1.10
2022-08-07T05:59:27.500Z,1.10
2022-08-07T06:01:57.155Z,1.20
2022-08-07T06:04:26.359Z,1.80
2022-08-07T06:07:03.803Z,1.70
2022-08-07T06:10:04.230Z,2.05
2022-08-07T06:12:21.044Z,2.00
2022-08-07T06:14:58.739Z,2.47
2022-08-07T06:17:37.466Z,2.90
2022-08-07T06:20:05.647Z,2.73
2022-08-07T06:22:38.913Z,2.60
2022-08-07T06:25:10.132Z,2.35
2022-08-07T06:28:00.031Z,3.10
2022-08-07T06:30:35.551Z,3.28
2022-08-07T06:33:05.072Z,2.30
2022-08-07T06:35:45.763Z,2.83
2022-08-07T06:38:23.986Z,2.70
2022-08-07T06:40:59.133Z,2.58
2022-08-07T06:43:39.189Z,2.95
2022-08-07T06:46:06.559Z,3.03
2022-08-07T06:48:42.040Z,3.00
2022-08-07T06:51:15.872Z,2.63
2022-08-07T06:55:27.357Z,2.75
2022-08-07T06:56:53.727Z,2.80
2022-08-07T07:00:12.466Z,3.20
2022-08-07T07:02:49.081Z,2.72
2022-08-07T07:05:09.388Z,2.80
2022-08-07T07:07:59.379Z,2.60
2022-08-07T07:10:33.328Z,2.53
2022-08-07T07:13:13.248Z,2.07
2022-08-07T07:15:51.505Z,2.38
2022-08-07T07:18:47.932Z,2.70
2022-08-07T07:21:40.389Z,2.22
2022-08-07T07:24:21.254Z,2.42
2022-08-07T07:26:54.138Z,2.20
2022-08-07T07:29:40.082Z,3.97
2022-08-07T07:32:16.642Z,1.77
2022-08-07T07:34:53.995Z,1.45
2022-08-07T07:37:49.513Z,1.80
2022-08-07T07:40:15.753Z,1.20
2022-08-07T07:42:50.893Z,1.85
2022-08-07T07:45:24.526Z,1.30
2022-08-07T07:48:11.023Z,1.15
2022-08-07T07:50:40.991Z,1.40
2022-08-07T07:53:13.513Z,0.93
2022-08-07T07:55:57.884Z,0.95
2022-08-07T07:58:40.619Z,1.15
2022-08-07T08:02:03.151Z,1.13
2022-08-07T08:04:06.507Z,1.30
2022-08-07T08:06:40.698Z,1.53
2022-08-07T08:09:20.634Z,1.15
2022-08-07T08:12:02.506Z,1.00
2022-08-07T08:14:38.955Z,1.30
2022-08-07T08:17:56.707Z,1.00
2022-08-07T08:20:18.168Z,1.20
2022-08-07T08:23:10.211Z,1.10
2022-08-07T08:26:04.723Z,0.88
2022-08-07T08:28:39.238Z,1.45
2022-08-07T08:31:22.835Z,0.82
2022-08-07T08:34:06.191Z,1.03
2022-08-07T08:36:37.264Z,0.73
2022-08-07T08:39:08.620Z,1.02
2022-08-07T08:41:58.682Z,0.93
2022-08-07T08:44:38.339Z,0.70
2022-08-07T08:47:51.945Z,1.97
2022-08-07T08:50:34.984Z,0.73
2022-08-07T08:53:26.532Z,0.95
2022-08-07T08:56:08.377Z,0.98
2022-08-07T08:59:12.794Z,0.73
2022-08-07T09:01:51.920Z,0.90
2022-08-07T09:04:44.063Z,1.00
2022-08-07T09:07:23.052Z,0.80
2022-08-07T09:10:11.627Z,0.60
2022-08-07T09:13:09.550Z,0.85
2022-08-07T09:16:24.603Z,0.60
2022-08-07T09:19:51.378Z,0.85
2022-08-07T09:24:30.927Z,0.60
2022-08-07T09:25:54.549Z,0.60
2022-08-07T09:30:06.491Z,0.50
2022-08-07T09:31:49.256Z,0.80
2022-08-07T09:34:26.317Z,0.50
2022-08-07T09:37:20.550Z,0.88
2022-08-07T09:40:30.358Z,0.70
2022-08-07T09:43:09.922Z,0.90
2022-08-07T09:47:51.540Z,0.60
2022-08-07T09:50:01.161Z,0.82
2022-08-07T09:52:34.111Z,0.80
2022-08-07T09:55:37.013Z,0.70
2022-08-07T09:58:32.417Z,0.80
2022-08-07T10:01:51.173Z,1.00
2022-08-07T10:04:32.764Z,0.80
2022-08-07T10:07:53.377Z,0.60
2022-08-07T10:11:00.258Z,0.68
2022-08-07T10:13:55.099Z,0.57
2022-08-07T10:16:50.614Z,0.73
2022-08-07T10:19:25.785Z,0.70
2022-08-07T10:22:32.107Z,0.52
2022-08-07T10:25:24.256Z,0.50
2022-08-07T10:28:26.291Z,0.60
2022-08-07T10:31:11.436Z,0.37
2022-08-07T10:34:06.969Z,0.63
2022-08-07T10:36:59.258Z,0.57
2022-08-07T10:39:41.740Z,0.40
2022-08-07T10:42:36.902Z,0.60
2022-08-07T10:45:19.393Z,0.50
2022-08-07T10:48:05.193Z,0.60
2022-08-07T10:50:49.874Z,0.73
2022-08-07T10:53:43.922Z,0.50
2022-08-07T10:56:31.464Z,0.47
2022-08-07T10:59:22.443Z,0.40
2022-08-07T11:02:12.482Z,1.35
2022-08-07T11:05:49.114Z,0.43
2022-08-07T11:08:32.919Z,0.50
2022-08-07T11:11:03.746Z,0.73
2022-08-07T11:14:45.031Z,0.43
2022-08-07T11:17:07.112Z,0.50
2022-08-07T11:19:43.708Z,0.40
2022-08-07T11:22:37.150Z,0.73
2022-08-07T11:25:36.177Z,0.60
2022-08-07T11:28:21.214Z,0.40
2022-08-07T11:30:51.291Z,0.50
2022-08-07T11:33:58.730Z,0.40
2022-08-07T11:36:30.995Z,0.70
2022-08-07T11:39:20.012Z,0.63
2022-08-07T11:42:18.747Z,0.40
2022-08-07T11:45:23.790Z,0.73
2022-08-07T11:48:29.475Z,0.60
2022-08-07T11:51:11.978Z,0.50
2022-08-07T11:54:25.376Z,0.57
2022-08-07T11:58:00.690Z,0.90
2022-08-07T12:00:27.609Z,0.77
2022-08-07T12:03:04.766Z,0.40
2022-08-07T12:05:54.098Z,0.80
2022-08-07T12:08:43.035Z,0.40
2022-08-07T12:11:32.274Z,0.50
2022-08-07T12:14:13.372Z,0.60
2022-08-07T12:16:53.944Z,0.50
2022-08-07T12:20:02.554Z,0.30
2022-08-07T12:22:58.886Z,0.40
2022-08-07T12:26:02.853Z,0.60
2022-08-07T12:29:04.230Z,0.40
2022-08-07T12:31:53.209Z,0.40
2022-08-07T12:34:35.623Z,0.40
2022-08-07T12:37:16.909Z,0.57
2022-08-07T12:39:54.895Z,0.60
2022-08-07T12:42:28.577Z,0.60
2022-08-07T12:45:06.470Z,0.70
2022-08-07T12:47:50.236Z,0.60
2022-08-07T12:50:34.044Z,0.57
2022-08-07T12:53:22.115Z,0.47
2022-08-07T12:56:12.317Z,0.60
2022-08-07T12:58:46.761Z,0.70
2022-08-07T13:01:28.221Z,0.50
2022-08-07T13:04:34.077Z,0.50
2022-08-07T13:08:14.139Z,0.60
2022-08-07T13:10:39.438Z,0.50
2022-08-07T13:13:47.541Z,0.57
2022-08-07T13:16:27.051Z,0.50
2022-08-07T13:19:35.264Z,0.70
2022-08-07T13:22:27.586Z,0.50
2022-08-07T13:25:00.532Z,0.40
2022-08-07T13:28:10.861Z,0.60
2022-08-07T13:30:41.301Z,0.45
2022-08-07T13:34:34.653Z,0.60
2022-08-07T13:36:27.061Z,0.70
2022-08-07T13:39:02.436Z,0.57
2022-08-07T13:41:49.550Z,0.50
2022-08-07T13:44:40.575Z,0.50
2022-08-07T13:47:15.737Z,0.90
2022-08-07T13:50:32.600Z,0.80
2022-08-07T13:52:41.411Z,0.80
2022-08-07T13:55:25.527Z,0.75
2022-08-07T13:58:27.995Z,1.00
2022-08-07T14:01:08.809Z,0.77
2022-08-07T14:04:06.668Z,0.70
2022-08-07T14:06:35.969Z,0.65
2022-08-07T14:09:06.066Z,0.90
2022-08-07T14:11:53.545Z,0.60
2022-08-07T14:14:39.008Z,0.50
2022-08-07T14:17:13.195Z,0.87
2022-08-07T14:20:43.596Z,0.60
2022-08-07T14:22:48.765Z,0.40
2022-08-07T14:25:17.639Z,0.52
2022-08-07T14:28:11.359Z,0.65
2022-08-07T14:30:40.563Z,0.67
2022-08-07T14:33:08.449Z,0.40
2022-08-07T14:35:44.882Z,0.40
2022-08-07T14:38:30.777Z,0.37
2022-08-07T14:41:14.593Z,0.40
2022-08-07T14:43:57.413Z,0.70
2022-08-07T14:46:36.007Z,0.52
2022-08-07T14:49:55.844Z,0.40
2022-08-07T14:52:03.730Z,0.40
2022-08-07T14:54:42.023Z,0.40
2022-08-07T14:57:19.366Z,0.70
2022-08-07T15:00:06.620Z,0.82
2022-08-07T15:02:35.178Z,0.50
2022-08-07T15:05:19.614Z,1.97
2022-08-07T15:13:36.819Z,0.80
2022-08-07T15:18:57.525Z,0.65
2022-08-07T15:21:44.732Z,0.85
2022-08-07T15:27:21.717Z,1.10
2022-08-07T15:30:10.103Z,0.77
2022-08-07T15:33:01.483Z,0.43
2022-08-07T15:36:00.721Z,1.75
2022-08-07T15:38:30.706Z,0.80
2022-08-07T15:41:23.806Z,0.77
2022-08-07T15:44:01.096Z,0.90
2022-08-07T15:46:32.460Z,0.47
2022-08-07T15:49:13.141Z,0.63
2022-08-07T15:54:34.223Z,1.67
2022-08-07T15:57:02.011Z,1.73
2022-08-07T15:59:39.140Z,0.90
2022-08-07T16:02:15.054Z,1.00
2022-08-07T16:04:43.980Z,1.10
2022-08-07T16:08:29.004Z,0.70
2022-08-07T16:10:21.829Z,0.75
2022-08-07T16:13:39.503Z,1.00
2022-08-07T16:16:49.684Z,0.93
2022-08-07T16:19:42.613Z,1.08
2022-08-07T16:22:54.927Z,1.10
2022-08-07T16:26:04.013Z,0.70
2022-08-07T16:29:18.550Z,0.90
2022-08-07T16:31:57.882Z,0.70
2022-08-07T16:34:41.208Z,0.70
2022-08-07T16:38:05.740Z,1.00
2022-08-07T16:41:01.518Z,0.93
2022-08-07T16:44:03.674Z,1.00
2022-08-07T16:47:06.625Z,0.88
2022-08-07T16:50:20.583Z,0.75
2022-08-07T16:54:02.531Z,1.13
2022-08-07T16:56:17.949Z,1.00
2022-08-07T16:59:17.287Z,0.60
2022-08-07T17:02:05.189Z,0.80
2022-08-07T17:04:51.064Z,1.00
2022-08-07T17:07:59.471Z,1.20
2022-08-07T17:10:38.447Z,0.82
2022-08-07T17:13:24.014Z,0.90
2022-08-07T17:16:17.228Z,0.75
2022-08-07T17:19:04.799Z,1.10
2022-08-07T17:21:51.219Z,1.10
2022-08-07T17:24:37.390Z,1.05
2022-08-07T17:27:19.906Z,0.90
2022-08-07T17:30:30.416Z,1.60
2022-08-07T17:34:10.123Z,2.55
2022-08-07T17:36:11.993Z,0.70
2022-08-07T17:38:47.664Z,0.90
2022-08-07T17:42:03.955Z,1.15
2022-08-07T17:44:35.049Z,1.15
2022-08-07T17:47:38.740Z,0.90
2022-08-07T17:50:19.284Z,0.90
2022-08-07T17:53:00.496Z,0.80
2022-08-07T17:56:01.365Z,0.77
2022-08-07T17:58:33.026Z,0.85
2022-08-07T18:01:21.040Z,1.00
2022-08-07T18:04:16.236Z,0.93
2022-08-07T18:07:20.081Z,0.88
2022-08-07T18:10:07.562Z,0.90
2022-08-07T18:12:59.786Z,0.80
2022-08-07T18:15:41.387Z,0.93
2022-08-07T18:19:02.369Z,0.80
2022-08-07T18:21:51.773Z,0.98
2022-08-07T18:24:35.678Z,1.05
2022-08-07T18:27:38.906Z,1.20
2022-08-07T18:30:31.279Z,0.70
2022-08-07T18:33:15.219Z,0.93
2022-08-07T18:36:10.230Z,0.95
2022-08-07T18:38:59.082Z,0.77
2022-08-07T18:42:01.529Z,1.10
2022-08-07T18:45:43.415Z,0.90
2022-08-07T18:47:45.020Z,1.03
2022-08-07T18:50:39.188Z,1.35
2022-08-07T18:53:39.387Z,0.90
2022-08-07T18:56:35.601Z,0.90
2022-08-07T18:59:47.276Z,1.00
2022-08-07T19:02:46.496Z,0.93
2022-08-07T19:06:01.964Z,0.90
2022-08-07T19:08:18.877Z,1.13
2022-08-07T19:11:36.559Z,0.90
2022-08-07T19:14:11.582Z,1.20
2022-08-07T19:17:05.483Z,0.87
2022-08-07T19:19:45.398Z,1.13
2022-08-07T19:22:30.788Z,1.10
2022-08-07T19:25:06.345Z,1.10
2022-08-07T19:28:57.686Z,1.27
2022-08-07T19:30:57.727Z,1.60
2022-08-07T19:33:15.813Z,1.27
2022-08-07T19:35:46.933Z,0.93
2022-08-07T19:38:17.832Z,0.85
2022-08-07T19:40:49.626Z,1.15
2022-08-07T19:43:44.236Z,1.57
2022-08-07T19:46:12.215Z,1.38
2022-08-07T19:48:53.636Z,1.38
2022-08-07T19:51:50.517Z,1.52
2022-08-07T19:54:31.354Z,2.63
2022-08-07T19:58:03.204Z,1.10
2022-08-07T19:59:53.158Z,1.20
2022-08-07T20:02:29.204Z,2.03
2022-08-07T20:04:57.983Z,1.55
2022-08-07T20:07:46.204Z,1.77
2022-08-07T20:10:36.069Z,2.50
2022-08-07T20:13:23.106Z,1.70
2022-08-07T20:15:53.721Z,1.88
2022-08-07T20:18:32.794Z,1.40
2022-08-07T20:21:20.954Z,1.60
2022-08-07T20:24:00.425Z,1.30
2022-08-07T20:26:38.737Z,1.60
2022-08-07T20:29:48.934Z,1.92
2022-08-07T20:32:05.405Z,2.15
2022-08-07T20:34:50.349Z,1.50
2022-08-07T20:37:23.294Z,2.53
2022-08-07T20:40:04.047Z,1.95
2022-08-07T20:42:38.009Z,1.60
2022-08-07T20:45:33.509Z,1.98
2022-08-07T20:47:58.320Z,1.60
2022-08-07T20:50:30.297Z,2.03
2022-08-07T20:52:57.687Z,1.42
2022-08-07T20:55:24.919Z,2.20
2022-08-07T20:58:03.369Z,1.75
2022-08-07T21:00:46.108Z,2.15
2022-08-07T21:03:23.017Z,2.03
2022-08-07T21:06:03.507Z,2.42
2022-08-07T21:08:43.384Z,1.70
2022-08-07T21:11:17.407Z,1.75
2022-08-07T21:14:29.809Z,1.48
2022-08-07T21:18:01.204Z,1.80
2022-08-07T21:19:51.497Z,2.47
2022-08-07T21:22:30.720Z,2.60
2022-08-07T21:25:22.584Z,2.15
2022-08-07T21:28:07.840Z,2.95
2022-08-07T21:30:49.750Z,1.80
2022-08-07T21:33:47.644Z,1.92
2022-08-07T21:36:37.693Z,1.75
2022-08-07T21:39:45.272Z,1.65
2022-08-07T21:42:42.477Z,2.13
2022-08-07T21:45:42.154Z,1.57
2022-08-07T21:48:27.944Z,2.00
2022-08-07T21:51:05.049Z,1.40
2022-08-07T21:53:46.583Z,2.03
2022-08-07T21:56:42.420Z,2.03
2022-08-07T21:59:29.982Z,1.93
2022-08-07T22:02:12.899Z,2.63
2022-08-07T22:04:52.654Z,1.80
2022-08-07T22:07:31.616Z,3.33
2022-08-07T22:10:11.729Z,2.58
2022-08-07T22:12:40.897Z,1.60
2022-08-07T22:16:38.901Z,2.40
2022-08-07T22:18:22.075Z,2.65
2022-08-07T22:20:59.504Z,2.75
2022-08-07T22:24:09.295Z,1.88
2022-08-07T22:26:46.928Z,1.93
2022-08-07T22:29:47.426Z,2.13
2022-08-07T22:32:20.378Z,1.80
2022-08-07T22:34:54.795Z,1.60
2022-08-07T22:37:27.660Z,1.55
2022-08-07T22:40:40.028Z,1.60
2022-08-07T22:43:18.083Z,1.90
2022-08-07T22:47:02.924Z,2.10
2022-08-07T22:49:18.824Z,1.67
2022-08-07T22:52:19.590Z,1.85
2022-08-07T22:55:38.419Z,1.90
2022-08-07T22:58:41.619Z,2.30
2022-08-07T23:01:30.476Z,1.88
2022-08-07T23:04:31.687Z,2.10
2022-08-07T23:07:33.600Z,2.20
2022-08-07T23:10:38.101Z,2.00
2022-08-07T23:13:16.428Z,1.85
2022-08-07T23:16:05.401Z,1.85
2022-08-07T23:18:42.943Z,3.53
2022-08-07T23:21:36.592Z,2.20
2022-08-07T23:24:38.782Z,1.80
2022-08-07T23:28:20.530Z,2.40
2022-08-07T23:31:07.110Z,1.50
2022-08-07T23:34:36.301Z,1.92
2022-08-07T23:37:17.900Z,1.90
2022-08-07T23:40:02.821Z,1.93
2022-08-07T23:42:43.502Z,2.80
2022-08-07T23:45:50.020Z,2.58
2022-08-07T23:48:24.984Z,2.33
2022-08-07T23:51:02.284Z,2.75
